Livonia, MI

3:00 PM EDT on October 01, 2014 (GMT -0400)
Redford Twp | Change Station
CLOSE
Current Station
Personal Weather Station
Location: Redford, MI
Elevation: 633 ft
Nearby Weather Stations

Elev 633 ft 42.40 °N, 83.31 °W | Updated 8 seconds ago

Overcast
Overcast
68.2 °F
Feels Like 68.2 °F
N
1.6
Wind Variable Wind from ESE
Gusts 4.5 mph

Today
High -- | Low -- °F
--% Chance of Precip.
Yesterday
High -- | Low -- °F
Precip. -- in
7:30 AM 7:14 PM
Waxing Crescent, 50% visible
Pressure 30.06 in
Visibility 10.0 miles
Clouds Overcast 3500 ft
Dew Point 55 °F
Humidity 63%
Rainfall 0.00 in
Snow Depth Not available.
UV 2 out of 12
Pollen 1.30 out of 12
Ozone Good
PM2.5 Moderate
Flu Activity Not available.
METAR KVLL 011855Z AUTO 00000KT 10SM OVC035 19/11 A3006 RMK AO2 T01910109

More Conditions Fewer Conditions

Pressure 30.06 in
Visibility 10.0 miles
Clouds Overcast 3500 ft
Dew Point 55 °F
Humidity 63%
Rainfall 0.00 in
Snow Depth Not available.
UV 2 out of 12
Pollen 1.30 out of 12
Ozone Good
PM2.5 Moderate
Flu Activity Not available.
METAR KVLL 011855Z AUTO 00000KT 10SM OVC035 19/11 A3006 RMK AO2 T01910109

More Conditions Fewer Conditions

10-Day Weather Forecast

Almanac

Astronomy

Oct. 01, 2014 Rise Set
Actual Time 7:30 AM EDT 7:14 PM EDT
Civil Twilight 7:02 AM EDT 7:42 PM EDT
Nautical Twilight 6:29 AM EDT 8:15 PM EDT
Astronomical Twilight 5:56 AM EDT 8:48 PM EDT
Moon 2:35 PM EDT No Moon Set
Length of Visible Light 12h 40m
Length of Day
11h 44m
Tomorrow will be 2m 50s shorter.
Waxing Crescent, 50% of the Moon is Illuminated
Today
Waxing Crescent
Oct 1
First Quarter
Oct 8
Full
Oct 15
Last Quarter
Oct 23
New

Today's Extremes

State Highs State Lows

Community

WunderPhotos

Upload Photos

1,758,010 photos uploaded!

WunderBlogs® & News

By Dr. Jeff Masters
Director of Meteorology, Weather Underground
By Kari Strenfel
Meteorologist, Weather Underground
By Christopher C. Burt
Weather Historian, Weather Underground
October 1, 2014
October 1, 2014
October 1, 2014

Nearby

Air Quality

  Air Quality AQ Index Pollutant
Yesterday Good
PM10
Yesterday Good
OZONE
Current Moderate
PM2.5
Current Good
OZONE
Wednesday Moderate
PM2.5
Wednesday Good
OZONE
Thursday Moderate
PM2.5
Thursday Good
OZONE
Friday Good
OZONE
Friday Good
PM2.5
Saturday Good
OZONE
Saturday Good
PM2.5

Snow Depth

Station Depth Elevation
No new snow has been reported.

Earthquake Activity

City Distance Mag. Time & Date
No recent earthquake activity has been reported nearby.
Minimum magnitude displayed is 2.5.

Coastal Water Temperatures

Place Temperature
Marblehead, OH 64.9 °F

Nearby Weather Stations